Time,TemperatureF,DewpointF,PressureIn,WindDirection,WindDirectionDegrees,WindSpeedMPH,WindSpeedGustMPH,Humidity,HourlyPrecipIn,Conditions,Clouds,dailyrainin,SoftwareType,DateUTC
2013-11-12 00:00:00,35.0,-99.9,-100.00,NW,315,24.0,29.0,-999,-99.99,,,-99.99,,2013-11-12 05:00:00,
2013-11-12 00:44:00,35.0,-99.9,-100.00,NW,315,24.0,29.0,-999,-99.99,,,-99.99,,2013-11-12 05:44:00,
2013-11-12 00:54:00,35.0,-99.9,-100.00,NW,315,24.0,29.0,-999,-99.99,,,-99.99,,2013-11-12 05:54:00,
2013-11-12 01:00:00,34.0,-99.9,-100.00,NW,326,21.0,28.0,-999,-99.99,,,-99.99,,2013-11-12 06:00:00,
2013-11-12 01:42:00,34.0,-99.9,-100.00,NW,326,21.0,28.0,-999,-99.99,,,-99.99,,2013-11-12 06:42:00,
2013-11-12 01:52:00,34.0,-99.9,-100.00,NW,326,21.0,28.0,-999,-99.99,,,-99.99,,2013-11-12 06:52:00,
2013-11-12 02:00:00,33.0,-99.9,-100.00,NW,316,26.0,32.0,-999,-99.99,,,-99.99,,2013-11-12 07:00:00,
2013-11-12 02:42:00,33.0,-99.9,-100.00,NW,316,26.0,32.0,-999,-99.99,,,-99.99,,2013-11-12 07:42:00,
2013-11-12 02:52:00,33.0,-99.9,-100.00,NW,316,26.0,32.0,-999,-99.99,,,-99.99,,2013-11-12 07:52:00,
2013-11-12 03:00:00,32.0,-99.9,-100.00,NW,326,25.0,30.0,-999,-99.99,,,-99.99,,2013-11-12 08:00:00,
2013-11-12 03:42:00,32.0,-99.9,-100.00,NW,326,25.0,30.0,-999,-99.99,,,-99.99,,2013-11-12 08:42:00,
2013-11-12 03:52:00,32.0,-99.9,-100.00,NW,326,25.0,30.0,-999,-99.99,,,-99.99,,2013-11-12 08:52:00,
2013-11-12 04:00:00,31.0,-99.9,-100.00,NW,319,25.0,32.0,-999,-99.99,,,-99.99,,2013-11-12 09:00:00,
2013-11-12 04:43:00,31.0,-99.9,-100.00,NW,319,25.0,32.0,-999,-99.99,,,-99.99,,2013-11-12 09:43:00,
2013-11-12 04:54:00,31.0,-99.9,-100.00,NW,319,25.0,32.0,-999,-99.99,,,-99.99,,2013-11-12 09:54:00,
2013-11-12 05:00:00,30.0,-99.9,-100.00,NW,304,25.0,30.0,-999,-99.99,,,-99.99,,2013-11-12 10:00:00,
2013-11-12 05:42:00,30.0,-99.9,-100.00,NW,304,25.0,30.0,-999,-99.99,,,-99.99,,2013-11-12 10:42:00,
2013-11-12 05:53:00,30.0,-99.9,-100.00,NW,304,25.0,30.0,-999,-99.99,,,-99.99,,2013-11-12 10:53:00,
2013-11-12 06:00:00,30.0,-99.9,-100.00,NW,310,22.0,28.0,-999,-99.99,,,-99.99,,2013-11-12 11:00:00,
2013-11-12 06:42:00,30.0,-99.9,-100.00,NW,310,22.0,28.0,-999,-99.99,,,-99.99,,2013-11-12 11:42:00,
2013-11-12 06:52:00,30.0,-99.9,-100.00,NW,310,22.0,28.0,-999,-99.99,,,-99.99,,2013-11-12 11:52:00,
2013-11-12 07:00:00,29.0,-99.9,-100.00,NW,321,27.0,33.0,-999,-99.99,,,-99.99,,2013-11-12 12:00:00,
2013-11-12 07:42:00,29.0,-99.9,-100.00,NW,321,27.0,33.0,-999,-99.99,,,-99.99,,2013-11-12 12:42:00,
2013-11-12 07:52:00,29.0,-99.9,-100.00,NW,321,27.0,33.0,-999,-99.99,,,-99.99,,2013-11-12 12:52:00,
2013-11-12 08:00:00,29.0,-99.9,-100.00,NW,324,21.0,30.0,-999,-99.99,,,-99.99,,2013-11-12 13:00:00,
2013-11-12 08:42:00,29.0,-99.9,-100.00,NW,324,21.0,30.0,-999,-99.99,,,-99.99,,2013-11-12 13:42:00,
2013-11-12 08:52:00,29.0,-99.9,-100.00,NW,324,21.0,30.0,-999,-99.99,,,-99.99,,2013-11-12 13:52:00,
2013-11-12 09:00:00,30.0,-99.9,-100.00,NW,307,25.0,29.0,-999,-99.99,,,-99.99,,2013-11-12 14:00:00,
2013-11-12 09:42:00,30.0,-99.9,-100.00,NW,307,25.0,29.0,-999,-99.99,,,-99.99,,2013-11-12 14:42:00,
2013-11-12 09:53:00,30.0,-99.9,-100.00,NW,307,25.0,29.0,-999,-99.99,,,-99.99,,2013-11-12 14:53:00,
2013-11-12 10:00:00,30.0,-99.9,-100.00,NW,314,21.0,27.0,-999,-99.99,,,-99.99,,2013-11-12 15:00:00,
2013-11-12 10:44:00,30.0,-99.9,-100.00,NW,314,21.0,27.0,-999,-99.99,,,-99.99,,2013-11-12 15:44:00,
2013-11-12 10:53:00,30.0,-99.9,-100.00,NW,314,21.0,27.0,-999,-99.99,,,-99.99,,2013-11-12 15:53:00,
2013-11-12 11:00:00,30.0,-99.9,-100.00,WNW,299,20.0,27.0,-999,-99.99,,,-99.99,,2013-11-12 16:00:00,
2013-11-12 11:43:00,30.0,-99.9,-100.00,WNW,299,20.0,27.0,-999,-99.99,,,-99.99,,2013-11-12 16:43:00,
2013-11-12 11:53:00,30.0,-99.9,-100.00,WNW,299,20.0,27.0,-999,-99.99,,,-99.99,,2013-11-12 16:53:00,
2013-11-12 12:00:00,31.0,-99.9,-100.00,NW,309,23.0,28.0,-999,-99.99,,,-99.99,,2013-11-12 17:00:00,
2013-11-12 12:43:00,31.0,-99.9,-100.00,NW,309,23.0,28.0,-999,-99.99,,,-99.99,,2013-11-12 17:43:00,
2013-11-12 12:52:00,31.0,-99.9,-100.00,NW,309,23.0,28.0,-999,-99.99,,,-99.99,,2013-11-12 17:52:00,
2013-11-12 13:00:00,32.0,-99.9,-100.00,WNW,303,25.0,32.0,-999,-99.99,,,-99.99,,2013-11-12 18:00:00,
2013-11-12 13:42:00,32.0,-99.9,-100.00,WNW,303,25.0,32.0,-999,-99.99,,,-99.99,,2013-11-12 18:42:00,
2013-11-12 13:52:00,32.0,-99.9,-100.00,WNW,303,25.0,32.0,-999,-99.99,,,-99.99,,2013-11-12 18:52:00,
2013-11-12 14:00:00,30.0,-99.9,-100.00,West,269,16.0,26.0,-999,-99.99,,,-99.99,,2013-11-12 19:00:00,
2013-11-12 14:42:00,30.0,-99.9,-100.00,West,269,16.0,26.0,-999,-99.99,,,-99.99,,2013-11-12 19:42:00,
2013-11-12 14:52:00,30.0,-99.9,-100.00,West,269,16.0,26.0,-999,-99.99,,,-99.99,,2013-11-12 19:52:00,
2013-11-12 15:00:00,32.0,-99.9,-100.00,NW,305,26.0,34.0,-999,-99.99,,,-99.99,,2013-11-12 20:00:00,
2013-11-12 15:42:00,32.0,-99.9,-100.00,NW,305,26.0,34.0,-999,-99.99,,,-99.99,,2013-11-12 20:42:00,
2013-11-12 15:53:00,32.0,-99.9,-100.00,NW,305,26.0,34.0,-999,-99.99,,,-99.99,,2013-11-12 20:53:00,
2013-11-12 16:00:00,33.0,-99.9,-100.00,WNW,293,21.0,33.0,-999,-99.99,,,-99.99,,2013-11-12 21:00:00,
2013-11-12 16:44:00,33.0,-99.9,-100.00,WNW,293,21.0,33.0,-999,-99.99,,,-99.99,,2013-11-12 21:44:00,
2013-11-12 16:54:00,33.0,-99.9,-100.00,WNW,293,21.0,33.0,-999,-99.99,,,-99.99,,2013-11-12 21:54:00,
2013-11-12 17:00:00,31.0,-99.9,-100.00,West,271,15.0,22.0,-999,-99.99,,,-99.99,,2013-11-12 22:00:00,
2013-11-12 17:44:00,31.0,-99.9,-100.00,West,271,15.0,22.0,-999,-99.99,,,-99.99,,2013-11-12 22:44:00,
2013-11-12 17:54:00,31.0,-99.9,-100.00,West,271,15.0,22.0,-999,-99.99,,,-99.99,,2013-11-12 22:54:00,
2013-11-12 18:00:00,30.0,-99.9,-100.00,WSW,253,11.0,18.0,-999,-99.99,,,-99.99,,2013-11-12 23:00:00,
2013-11-12 18:42:00,30.0,-99.9,-100.00,WSW,253,11.0,18.0,-999,-99.99,,,-99.99,,2013-11-12 23:42:00,
2013-11-12 18:54:00,30.0,-99.9,-100.00,WSW,253,11.0,18.0,-999,-99.99,,,-99.99,,2013-11-12 23:54:00,
2013-11-12 19:00:00,28.0,-99.9,-100.00,West,281,16.0,24.0,-999,-99.99,,,-99.99,,2013-11-13 00:00:00,
2013-11-12 19:42:00,28.0,-99.9,-100.00,West,281,16.0,24.0,-999,-99.99,,,-99.99,,2013-11-13 00:42:00,
2013-11-12 19:52:00,28.0,-99.9,-100.00,West,281,16.0,24.0,-999,-99.99,,,-99.99,,2013-11-13 00:52:00,
2013-11-12 20:00:00,32.0,-99.9,-100.00,NW,313,25.0,28.0,-999,-99.99,,,-99.99,,2013-11-13 01:00:00,
2013-11-12 20:42:00,32.0,-99.9,-100.00,NW,313,25.0,28.0,-999,-99.99,,,-99.99,,2013-11-13 01:42:00,
2013-11-12 20:52:00,32.0,-99.9,-100.00,NW,313,25.0,28.0,-999,-99.99,,,-99.99,,2013-11-13 01:52:00,
2013-11-12 21:00:00,30.0,-99.9,-100.00,NW,311,22.0,30.0,-999,-99.99,,,-99.99,,2013-11-13 02:00:00,
2013-11-12 21:42:00,30.0,-99.9,-100.00,NW,311,22.0,30.0,-999,-99.99,,,-99.99,,2013-11-13 02:42:00,
2013-11-12 21:53:00,30.0,-99.9,-100.00,NW,311,22.0,30.0,-999,-99.99,,,-99.99,,2013-11-13 02:53:00,
2013-11-12 22:00:00,29.0,-99.9,-100.00,West,280,13.0,28.0,-999,-99.99,,,-99.99,,2013-11-13 03:00:00,
2013-11-12 22:45:00,29.0,-99.9,-100.00,West,280,13.0,28.0,-999,-99.99,,,-99.99,,2013-11-13 03:45:00,
2013-11-12 22:54:00,29.0,-99.9,-100.00,West,280,13.0,28.0,-999,-99.99,,,-99.99,,2013-11-13 03:54:00,
2013-11-12 23:00:00,30.0,-99.9,-100.00,NNW,332,22.0,28.0,-999,-99.99,,,-99.99,,2013-11-13 04:00:00,
2013-11-12 23:43:00,30.0,-99.9,-100.00,NNW,332,22.0,28.0,-999,-99.99,,,-99.99,,2013-11-13 04:43:00,
2013-11-12 23:53:00,30.0,-99.9,-100.00,NNW,332,22.0,28.0,-999,-99.99,,,-99.99,,2013-11-13 04:53:00,